createdAt,value
2018-06-19T00:01:23.823Z,49.67
2018-06-19T00:03:55.256Z,50.26
2018-06-19T00:06:27.679Z,50.66
2018-06-19T00:08:59.518Z,50.65
2018-06-19T00:11:33.072Z,50.28
2018-06-19T00:14:05.534Z,49.94
2018-06-19T00:16:43.118Z,50.09
2018-06-19T00:19:16.923Z,50.44
2018-06-19T00:21:50.871Z,50.48
2018-06-19T00:24:23.175Z,50.62
2018-06-19T00:26:55.368Z,50.85
2018-06-19T00:29:27.779Z,50.65
2018-06-19T00:32:01.525Z,49.97
2018-06-19T00:34:34.610Z,50.72
2018-06-19T00:37:07.721Z,51.26
2018-06-19T00:39:39.369Z,51.11
2018-06-19T00:42:11.359Z,51.08
2018-06-19T00:44:43.763Z,51.44
2018-06-19T00:47:16.055Z,50.40
2018-06-19T00:49:47.425Z,51.68
2018-06-19T00:52:19.206Z,50.70
2018-06-19T00:54:50.536Z,50.59
2018-06-19T00:57:22.033Z,50.54
2018-06-19T00:59:54.158Z,51.00
2018-06-19T01:02:26.685Z,51.89
2018-06-19T01:04:58.143Z,51.81
2018-06-19T01:07:29.797Z,51.53
2018-06-19T01:10:01.240Z,50.84
2018-06-19T01:12:32.657Z,51.77
2018-06-19T01:15:07.117Z,52.04
2018-06-19T01:17:38.492Z,52.67
2018-06-19T01:20:09.981Z,52.89
2018-06-19T01:22:42.950Z,52.86
2018-06-19T01:25:14.994Z,52.21
2018-06-19T01:27:47.208Z,53.34
2018-06-19T01:30:19.319Z,52.95
2018-06-19T01:32:50.796Z,53.24
2018-06-19T01:35:23.266Z,53.41
2018-06-19T01:37:56.127Z,53.99
2018-06-19T01:40:27.668Z,53.90
2018-06-19T01:42:58.993Z,53.95
2018-06-19T01:45:30.282Z,54.54
2018-06-19T01:48:01.685Z,53.71
2018-06-19T01:50:34.070Z,54.44
2018-06-19T01:53:05.511Z,53.76
2018-06-19T01:55:38.112Z,53.70
2018-06-19T01:58:11.341Z,54.22
2018-06-19T02:00:44.262Z,54.15
2018-06-19T02:03:17.478Z,54.82
2018-06-19T02:05:52.556Z,54.93
2018-06-19T02:08:27.210Z,54.33
2018-06-19T02:11:02.005Z,55.27
2018-06-19T02:13:35.362Z,54.71
2018-06-19T02:16:08.632Z,55.28
2018-06-19T02:18:42.010Z,55.25
2018-06-19T02:21:14.124Z,54.70
2018-06-19T02:23:48.759Z,55.63
2018-06-19T02:26:24.554Z,55.02
2018-06-19T02:28:57.881Z,54.68
2018-06-19T02:31:33.096Z,55.22
2018-06-19T02:34:08.128Z,55.21
2018-06-19T02:36:39.549Z,55.89
2018-06-19T02:39:13.652Z,55.74
2018-06-19T02:41:44.991Z,55.34
2018-06-19T02:44:18.206Z,55.99
2018-06-19T02:46:49.576Z,55.58
2018-06-19T02:49:21.178Z,55.83
2018-06-19T02:51:52.587Z,55.22
2018-06-19T02:54:24.947Z,55.15
2018-06-19T02:56:56.767Z,55.13
2018-06-19T02:59:29.225Z,55.69
2018-06-19T03:02:00.647Z,56.15
2018-06-19T03:04:32.658Z,55.39
2018-06-19T03:07:04.058Z,55.20
2018-06-19T03:09:40.444Z,54.92
2018-06-19T03:12:11.798Z,55.12
2018-06-19T03:14:45.085Z,55.07
2018-06-19T03:17:16.699Z,55.73
2018-06-19T03:19:49.024Z,56.26
2018-06-19T03:22:21.287Z,56.05
2018-06-19T03:24:52.880Z,55.87
2018-06-19T03:27:24.292Z,56.83
2018-06-19T03:29:58.358Z,56.48
2018-06-19T03:32:30.105Z,56.35
2018-06-19T03:35:01.550Z,56.30
2018-06-19T03:37:33.228Z,55.48
2018-06-19T03:40:07.546Z,54.83
2018-06-19T03:42:41.631Z,54.72
2018-06-19T03:45:20.691Z,54.83
2018-06-19T03:47:52.143Z,55.48
2018-06-19T03:50:24.462Z,55.00
2018-06-19T03:52:56.965Z,55.02
2018-06-19T03:55:27.435Z,55.86
2018-06-19T03:57:59.861Z,54.88
2018-06-19T04:00:31.227Z,54.50
2018-06-19T04:03:03.762Z,53.90
2018-06-19T04:05:37.618Z,52.90
2018-06-19T04:08:10.704Z,51.71
2018-06-19T04:10:43.401Z,50.65
2018-06-19T04:15:53.314Z,49.14
2018-06-19T04:18:30.543Z,48.38
2018-06-19T04:21:05.612Z,47.70
2018-06-19T04:23:38.663Z,46.67
2018-06-19T04:26:13.835Z,45.98
2018-06-19T04:28:45.712Z,45.62
2018-06-19T04:31:18.058Z,44.37
2018-06-19T04:33:49.455Z,44.23
2018-06-19T04:36:21.171Z,43.12
2018-06-19T04:38:53.074Z,42.51
2018-06-19T04:41:25.307Z,41.08
2018-06-19T04:43:56.752Z,40.01
2018-06-19T04:46:28.751Z,39.21
2018-06-19T04:49:01.777Z,39.11
2018-06-19T04:51:34.986Z,38.55
2018-06-19T04:54:06.302Z,37.51
2018-06-19T04:56:39.282Z,36.88
2018-06-19T04:59:18.502Z,35.77
2018-06-19T05:01:51.632Z,34.87
2018-06-19T05:04:23.108Z,35.03
2018-06-19T05:07:00.865Z,34.21
2018-06-19T05:09:32.218Z,34.49
2018-06-19T05:12:06.026Z,33.51
2018-06-19T05:14:38.266Z,33.13
2018-06-19T05:17:09.980Z,32.87
2018-06-19T05:19:45.049Z,33.37
2018-06-19T05:22:17.218Z,32.46
2018-06-19T05:24:50.428Z,33.15
2018-06-19T05:27:22.756Z,33.11
2018-06-19T05:29:55.417Z,33.58
2018-06-19T05:32:28.672Z,33.72
2018-06-19T05:35:01.312Z,35.09
2018-06-19T05:37:33.616Z,34.74
2018-06-19T05:40:06.582Z,35.41
2018-06-19T05:42:39.178Z,35.63
2018-06-19T05:45:15.009Z,34.74
2018-06-19T05:47:48.142Z,34.48
2018-06-19T05:50:21.108Z,33.87
2018-06-19T05:52:56.359Z,33.27
2018-06-19T05:55:31.538Z,32.84
2018-06-19T05:58:07.264Z,31.61
2018-06-19T06:00:42.909Z,32.25
2018-06-19T06:03:15.675Z,32.05
2018-06-19T06:05:48.503Z,31.63
2018-06-19T06:08:24.201Z,32.11
2018-06-19T06:10:57.386Z,31.42
2018-06-19T06:13:31.898Z,31.21
2018-06-19T06:16:05.226Z,31.57
2018-06-19T06:18:41.641Z,31.90
2018-06-19T06:21:13.937Z,32.06
2018-06-19T06:23:46.386Z,31.27
2018-06-19T06:26:19.692Z,31.20
2018-06-19T06:28:53.122Z,30.97
2018-06-19T06:31:25.382Z,30.46
2018-06-19T06:34:00.313Z,30.43
2018-06-19T06:36:32.527Z,28.97
2018-06-19T06:39:09.332Z,29.27
2018-06-19T06:41:40.854Z,28.96
2018-06-19T06:44:14.373Z,28.81
2018-06-19T06:46:46.448Z,28.76
2018-06-19T06:49:22.231Z,29.30
2018-06-19T06:51:55.358Z,28.44
2018-06-19T06:54:29.788Z,28.35
2018-06-19T06:57:05.500Z,27.60
2018-06-19T06:59:38.056Z,27.79
2018-06-19T07:02:11.900Z,27.15
2018-06-19T07:04:45.341Z,26.16
2018-06-19T07:07:16.803Z,25.59
2018-06-19T07:09:51.850Z,27.13
2018-06-19T07:12:24.918Z,27.76
2018-06-19T07:14:58.535Z,27.30
2018-06-19T07:17:33.638Z,27.94
2018-06-19T07:20:08.653Z,26.63
2018-06-19T07:22:43.789Z,26.01
2018-06-19T07:25:18.058Z,26.07
2018-06-19T07:27:52.862Z,26.61
2018-06-19T07:30:28.737Z,26.80
2018-06-19T07:33:02.626Z,26.51
2018-06-19T07:35:36.922Z,26.98
2018-06-19T07:38:12.179Z,26.86
2018-06-19T07:40:48.640Z,26.39
2018-06-19T07:43:24.526Z,26.43
2018-06-19T07:45:58.840Z,26.39
2018-06-19T07:48:32.248Z,26.42
2018-06-19T07:51:06.509Z,25.93
2018-06-19T07:53:40.465Z,25.26
2018-06-19T07:56:15.098Z,26.36
2018-06-19T07:58:48.482Z,27.15
2018-06-19T08:01:25.648Z,26.83
2018-06-19T08:03:58.811Z,27.23
2018-06-19T08:06:33.117Z,26.97
2018-06-19T08:09:10.432Z,26.81
2018-06-19T08:11:46.941Z,26.28
2018-06-19T08:14:22.233Z,24.57
2018-06-19T08:16:59.415Z,24.60
2018-06-19T08:19:35.473Z,24.89
2018-06-19T08:22:15.683Z,25.07
2018-06-19T08:24:52.357Z,25.58
2018-06-19T08:27:29.618Z,26.70
2018-06-19T08:30:09.619Z,26.78
2018-06-19T08:32:45.860Z,25.82
2018-06-19T08:35:20.546Z,25.30
2018-06-19T08:37:54.616Z,26.07
2018-06-19T08:40:30.152Z,25.75
2018-06-19T08:43:04.543Z,27.26
2018-06-19T08:45:38.335Z,26.83
2018-06-19T08:48:12.495Z,26.83
2018-06-19T08:50:46.578Z,27.46
2018-06-19T08:55:55.990Z,29.27
2018-06-19T08:58:29.203Z,30.60
2018-06-19T09:01:04.206Z,30.06
2018-06-19T09:03:38.312Z,29.50
2018-06-19T09:06:14.696Z,29.61
2018-06-19T09:08:48.279Z,29.81
2018-06-19T09:11:22.017Z,30.17
2018-06-19T09:13:56.661Z,29.70
2018-06-19T09:16:31.209Z,30.00
2018-06-19T09:19:06.055Z,28.83
2018-06-19T09:21:40.650Z,28.69
2018-06-19T09:24:16.735Z,27.55
2018-06-19T09:26:50.565Z,27.61
2018-06-19T09:29:25.548Z,27.32
2018-06-19T09:31:58.743Z,27.70
2018-06-19T09:34:32.082Z,28.17
2018-06-19T09:37:07.225Z,29.14
2018-06-19T09:39:43.569Z,29.36
2018-06-19T09:42:20.502Z,28.91
2018-06-19T09:44:55.479Z,29.21
2018-06-19T09:47:29.915Z,29.24
2018-06-19T09:50:03.148Z,29.69
2018-06-19T09:52:38.674Z,29.10
2018-06-19T09:55:15.676Z,28.22
2018-06-19T09:57:50.451Z,28.32
2018-06-19T10:00:28.765Z,28.10
2018-06-19T10:03:02.960Z,28.10
2018-06-19T10:05:38.069Z,27.77
2018-06-19T10:08:15.158Z,27.78
2018-06-19T10:10:49.373Z,28.22
2018-06-19T10:13:25.847Z,28.37
2018-06-19T10:16:02.819Z,28.28
2018-06-19T10:18:37.986Z,29.04
2018-06-19T10:21:11.975Z,28.74
2018-06-19T10:23:47.256Z,28.88
2018-06-19T10:26:23.218Z,28.31
2018-06-19T10:29:02.295Z,28.65
2018-06-19T10:31:38.424Z,28.57
2018-06-19T10:34:12.684Z,29.85
2018-06-19T10:36:46.341Z,29.52
2018-06-19T10:39:21.577Z,30.02
2018-06-19T10:41:55.357Z,30.05
2018-06-19T10:47:30.726Z,30.14
2018-06-19T11:00:14.436Z,27.87
2018-06-19T11:02:50.188Z,27.42
2018-06-19T11:05:29.847Z,26.67
2018-06-19T11:08:02.827Z,25.73
2018-06-19T11:10:35.885Z,26.19
2018-06-19T11:13:12.309Z,26.08
2018-06-19T11:15:46.489Z,26.62
2018-06-19T11:18:19.536Z,26.75
2018-06-19T11:20:52.893Z,26.21
2018-06-19T11:23:27.949Z,25.98
2018-06-19T11:26:01.763Z,25.67
2018-06-19T11:28:34.836Z,25.27
2018-06-19T11:31:08.843Z,24.90
2018-06-19T11:33:43.686Z,25.33
2018-06-19T11:36:18.429Z,26.47
2018-06-19T11:38:54.452Z,27.26
2018-06-19T11:41:30.584Z,27.90
2018-06-19T11:44:05.116Z,28.99
2018-06-19T11:46:39.738Z,28.73
2018-06-19T11:49:13.261Z,28.00
2018-06-19T11:51:46.311Z,27.68
2018-06-19T11:54:20.109Z,28.07
2018-06-19T11:56:53.911Z,27.45
2018-06-19T11:59:28.307Z,28.30
2018-06-19T12:02:03.079Z,28.56
2018-06-19T12:04:36.214Z,28.88
2018-06-19T12:07:12.850Z,29.01
2018-06-19T12:09:46.612Z,29.84
2018-06-19T12:12:19.752Z,29.25
2018-06-19T12:14:53.223Z,30.50
2018-06-19T12:17:28.392Z,31.23
2018-06-19T12:20:02.371Z,31.33
2018-06-19T12:22:35.511Z,31.31
2018-06-19T12:25:11.521Z,31.36
2018-06-19T12:27:50.526Z,33.00
2018-06-19T12:30:24.245Z,33.50
2018-06-19T12:32:57.305Z,32.80
2018-06-19T12:35:31.372Z,32.35
2018-06-19T12:38:05.461Z,33.16
2018-06-19T12:40:41.514Z,33.51
2018-06-19T12:43:16.097Z,32.63
2018-06-19T12:45:53.370Z,32.25
2018-06-19T12:48:28.860Z,31.83
2018-06-19T12:52:18.524Z,29.93
2018-06-19T12:56:02.350Z,30.83
2018-06-19T12:58:37.358Z,29.90
2018-06-19T13:01:12.356Z,30.66
2018-06-19T13:03:57.399Z,30.80
2018-06-19T13:06:35.776Z,31.43
2018-06-19T13:09:14.143Z,31.80
2018-06-19T13:11:50.059Z,32.29
2018-06-19T13:14:36.412Z,31.79
2018-06-19T13:17:20.831Z,31.38
2018-06-19T13:20:05.375Z,32.08
2018-06-19T13:22:38.451Z,30.87
2018-06-19T13:28:00.602Z,30.77
2018-06-19T13:32:42.299Z,31.51
2018-06-19T13:35:15.252Z,31.93
2018-06-19T13:37:52.122Z,31.76
2018-06-19T13:41:02.099Z,32.48
2018-06-19T13:43:46.425Z,32.93
2018-06-19T13:46:20.341Z,32.49
2018-06-19T13:48:55.900Z,31.35
2018-06-19T13:51:33.899Z,32.45
2018-06-19T13:54:23.409Z,31.94
2018-06-19T13:57:07.219Z,31.36
2018-06-19T13:59:41.160Z,30.96
2018-06-19T14:02:24.423Z,31.00
2018-06-19T14:05:00.378Z,31.27
2018-06-19T14:07:41.987Z,30.41
2018-06-19T14:10:37.440Z,30.09
2018-06-19T14:13:12.213Z,29.03
2018-06-19T14:15:48.828Z,28.69
2018-06-19T14:18:22.371Z,29.31
2018-06-19T14:20:56.480Z,29.11
2018-06-19T14:23:29.702Z,28.79
2018-06-19T14:26:03.054Z,29.34
2018-06-19T14:28:40.106Z,29.17
2018-06-19T14:31:21.103Z,28.58
2018-06-19T14:33:56.391Z,28.08
2018-06-19T14:36:33.446Z,27.67
2018-06-19T14:39:09.940Z,27.31
2018-06-19T14:41:44.349Z,27.43
2018-06-19T14:44:26.809Z,27.17
2018-06-19T14:46:59.922Z,27.45
2018-06-19T14:49:34.399Z,27.63
2018-06-19T14:52:09.097Z,26.73
2018-06-19T14:54:44.410Z,27.15
2018-06-19T14:57:23.125Z,26.13
2018-06-19T14:59:57.909Z,26.46
2018-06-19T15:02:34.364Z,26.11
2018-06-19T15:05:08.905Z,25.77
2018-06-19T15:07:50.101Z,25.79
2018-06-19T15:10:23.728Z,26.03
2018-06-19T15:12:57.442Z,25.61
2018-06-19T15:15:30.457Z,26.71
2018-06-19T15:18:05.185Z,26.81
2018-06-19T15:20:41.951Z,27.31
2018-06-19T15:23:15.651Z,26.83
2018-06-19T15:25:52.255Z,27.96
2018-06-19T15:28:25.882Z,27.95
2018-06-19T15:30:59.693Z,27.66
2018-06-19T15:33:32.807Z,27.83
2018-06-19T15:36:05.849Z,28.21
2018-06-19T15:38:40.575Z,28.77
2018-06-19T15:41:14.897Z,29.66
2018-06-19T15:43:48.542Z,29.64
2018-06-19T15:46:21.920Z,29.93
2018-06-19T15:48:55.371Z,29.58
2018-06-19T15:51:28.464Z,29.82
2018-06-19T15:54:04.257Z,30.00
2018-06-19T15:56:38.493Z,30.51
2018-06-19T15:59:12.050Z,29.84
2018-06-19T16:01:46.051Z,30.96
2018-06-19T16:04:26.293Z,30.66
2018-06-19T16:07:01.725Z,30.59
2018-06-19T16:09:34.768Z,30.19
2018-06-19T16:12:08.560Z,30.31
2018-06-19T16:14:44.374Z,29.81
2018-06-19T16:17:19.612Z,29.39
2018-06-19T16:19:53.805Z,29.70
2018-06-19T16:22:28.358Z,29.84
2018-06-19T16:25:01.437Z,28.63
2018-06-19T16:27:34.524Z,29.01
2018-06-19T16:30:07.730Z,28.97
2018-06-19T16:32:41.657Z,29.36
2018-06-19T16:35:14.611Z,28.71
2018-06-19T16:37:47.650Z,29.29
2018-06-19T16:40:23.418Z,29.46
2018-06-19T16:43:01.635Z,29.79
2018-06-19T16:48:16.020Z,29.24
2018-06-19T16:50:50.415Z,30.24
2018-06-19T16:53:24.628Z,30.20
2018-06-19T16:56:00.027Z,29.26
2018-06-19T16:58:33.873Z,29.59
2018-06-19T17:01:07.007Z,29.48
2018-06-19T17:03:41.340Z,29.23
2018-06-19T17:06:14.884Z,29.68
2018-06-19T17:08:56.247Z,28.97
2018-06-19T17:11:33.307Z,28.75
2018-06-19T17:14:10.312Z,29.23
2018-06-19T17:16:48.502Z,29.02
2018-06-19T17:19:22.396Z,29.27
2018-06-19T17:21:55.928Z,29.67
2018-06-19T17:24:31.335Z,29.18
2018-06-19T17:27:04.397Z,28.66
2018-06-19T17:30:42.384Z,29.28
2018-06-19T17:33:16.844Z,29.39
2018-06-19T17:35:53.485Z,29.49
2018-06-19T17:38:26.487Z,29.54
2018-06-19T17:41:00.741Z,29.32
2018-06-19T17:43:36.111Z,29.36
2018-06-19T17:46:10.360Z,29.97
2018-06-19T17:48:43.428Z,30.15
2018-06-19T17:51:17.528Z,30.22
2018-06-19T17:53:54.490Z,30.17
2018-06-19T17:56:28.640Z,29.32
2018-06-19T17:59:03.485Z,29.41
2018-06-19T18:01:38.353Z,29.17
2018-06-19T18:04:12.935Z,28.66
2018-06-19T18:06:47.025Z,28.10
2018-06-19T18:09:20.111Z,27.57
2018-06-19T18:11:53.228Z,27.49
2018-06-19T18:14:27.777Z,28.05
2018-06-19T18:17:00.994Z,29.33
2018-06-19T18:19:34.832Z,29.61
2018-06-19T18:22:13.369Z,30.06
2018-06-19T18:24:50.814Z,30.40
2018-06-19T18:27:24.625Z,31.03
2018-06-19T18:30:02.726Z,31.65
2018-06-19T18:32:37.812Z,32.34
2018-06-19T18:35:11.576Z,32.02
2018-06-19T18:37:47.357Z,32.89
2018-06-19T18:40:23.961Z,33.31
2018-06-19T18:42:59.955Z,33.65
2018-06-19T18:45:37.593Z,33.42
2018-06-19T18:48:12.697Z,34.20
2018-06-19T18:50:48.183Z,34.35
2018-06-19T18:53:38.238Z,34.84
2018-06-19T18:56:14.147Z,35.30
2018-06-19T18:58:47.136Z,35.83
2018-06-19T19:01:27.352Z,35.51
2018-06-19T19:04:03.308Z,36.47
2018-06-19T19:06:38.300Z,36.33
2018-06-19T19:09:12.728Z,36.68
2018-06-19T19:11:47.870Z,36.40
2018-06-19T19:14:24.676Z,36.74
2018-06-19T19:17:08.445Z,36.81
2018-06-19T19:19:48.804Z,36.73
2018-06-19T19:22:24.533Z,38.06
2018-06-19T19:24:59.913Z,37.39
2018-06-19T19:27:38.469Z,37.79
2018-06-19T19:30:14.061Z,38.25
2018-06-19T19:32:49.487Z,38.25
2018-06-19T19:35:24.634Z,38.21
2018-06-19T19:38:03.436Z,38.61
2018-06-19T19:40:36.039Z,39.00
2018-06-19T19:43:11.709Z,39.03
2018-06-19T19:45:48.353Z,38.62
2018-06-19T19:48:27.680Z,38.79
2018-06-19T19:51:02.590Z,39.18
2018-06-19T19:53:46.011Z,39.59
2018-06-19T19:56:25.679Z,39.63
2018-06-19T19:59:05.042Z,40.06
2018-06-19T20:01:46.150Z,39.61
2018-06-19T20:04:23.961Z,39.93
2018-06-19T20:06:58.332Z,40.71
2018-06-19T20:09:37.987Z,41.22
2018-06-19T20:12:13.614Z,41.12
2018-06-19T20:14:48.341Z,41.47
2018-06-19T20:17:23.256Z,42.24
2018-06-19T20:19:57.696Z,42.36
2018-06-19T20:22:32.992Z,41.83
2018-06-19T20:25:23.520Z,42.42
2018-06-19T20:27:57.357Z,42.67
2018-06-19T20:30:33.256Z,43.32
2018-06-19T20:33:07.400Z,43.50
2018-06-19T20:35:48.393Z,42.94
2018-06-19T20:38:25.612Z,42.98
2018-06-19T20:41:06.011Z,42.84
2018-06-19T20:43:40.435Z,43.54
2018-06-19T20:46:15.464Z,43.65
2018-06-19T20:48:50.478Z,43.15
2018-06-19T20:51:26.093Z,43.20
2018-06-19T20:54:01.153Z,43.20
2018-06-19T20:56:38.904Z,42.74
2018-06-19T20:59:14.561Z,43.38
2018-06-19T21:01:52.557Z,42.65
2018-06-19T21:04:28.467Z,42.90
2018-06-19T21:07:04.853Z,43.50
2018-06-19T21:09:37.640Z,43.04
2018-06-19T21:12:16.225Z,43.36
2018-06-19T21:14:53.137Z,42.95
2018-06-19T21:17:29.555Z,43.85
2018-06-19T21:20:18.656Z,43.41
2018-06-19T21:22:57.814Z,44.10
2018-06-19T21:25:31.632Z,44.26
2018-06-19T21:28:06.583Z,44.33
2018-06-19T21:30:42.009Z,44.21
2018-06-19T21:33:15.943Z,44.58
2018-06-19T21:35:49.176Z,45.06
2018-06-19T21:38:24.421Z,44.29
2018-06-19T21:41:07.301Z,45.20
2018-06-19T21:43:44.340Z,45.18
2018-06-19T21:46:18.662Z,44.55
2018-06-19T21:48:54.624Z,45.32
2018-06-19T21:51:30.325Z,45.06
2018-06-19T21:56:43.487Z,44.90
2018-06-19T21:59:18.371Z,45.11
2018-06-19T22:01:56.611Z,44.71
2018-06-19T22:04:31.973Z,44.85
2018-06-19T22:07:05.344Z,44.60
2018-06-19T22:09:42.303Z,44.94
2018-06-19T22:12:16.909Z,44.78
2018-06-19T22:14:52.455Z,45.03
2018-06-19T22:17:25.182Z,44.65
2018-06-19T22:20:00.200Z,44.70
2018-06-19T22:22:37.729Z,45.00
2018-06-19T22:25:12.606Z,44.13
2018-06-19T22:27:48.670Z,43.97
2018-06-19T22:30:21.708Z,45.02
2018-06-19T22:32:54.249Z,44.97
2018-06-19T22:35:29.891Z,44.22
2018-06-19T22:38:04.833Z,44.57
2018-06-19T22:40:40.391Z,43.86
2018-06-19T22:43:14.790Z,44.22
2018-06-19T22:45:47.104Z,44.20
2018-06-19T22:48:19.243Z,43.71
2018-06-19T22:50:55.342Z,44.13
2018-06-19T22:53:28.604Z,44.47
2018-06-19T22:56:03.830Z,44.25
2018-06-19T22:58:37.281Z,43.97
2018-06-19T23:01:10.592Z,43.98
2018-06-19T23:03:47.143Z,43.34
2018-06-19T23:06:21.804Z,43.56
2018-06-19T23:09:00.248Z,43.58
2018-06-19T23:11:39.208Z,43.99
2018-06-19T23:14:17.321Z,43.86
2018-06-19T23:16:48.813Z,44.06
2018-06-19T23:19:20.805Z,43.11
2018-06-19T23:21:54.365Z,42.78
2018-06-19T23:24:27.489Z,43.46
2018-06-19T23:27:01.616Z,43.16
2018-06-19T23:29:33.801Z,43.55
2018-06-19T23:32:08.338Z,43.61
2018-06-19T23:34:42.653Z,42.54
2018-06-19T23:37:20.213Z,42.95
2018-06-19T23:39:54.061Z,42.66
2018-06-19T23:42:29.623Z,43.14
2018-06-19T23:45:04.161Z,42.92
2018-06-19T23:47:38.319Z,43.16
2018-06-19T23:50:10.546Z,43.36
2018-06-19T23:52:42.822Z,42.42
2018-06-19T23:55:16.948Z,43.51
2018-06-19T23:57:49.361Z,43.67
